ハリファックス の空港の天気 - METARとTAF

ハリファックス国際空港 ( CYHZ / YHZ ) - カナダ ノバスコシア州ハリファックス
飛行場実況気象(Metar)
観測時間12/03 09:00 AST (12/03 13:00 UTC)
風向・風速西南西 5m/s
視程10km以上
天気現象
少しの雲 雲底高度 300m
全天の8割程度の雲 雲底高度 1580m
気温5℃
湿度93%
気圧1015.3hPa
METARCYHZ 031300Z 24009KT 15SM FEW010 BKN052 05/04 A2997 RMK SF1SC6 SLP153
過去の天気等 Google飛行場航空写真 Wunderground天気予報

過去48時間のMETAR

飛行場予報(TAF)
発表時間: 12/03 07:38 AST (12/03 11:38 UTC)
予報対象時間: 3日8時 AST ~ 4日8時 AST
風向・風速南西 5m/s
視程10km以上
少しの雲 雲底高度 180m
全天を覆う雲 雲底高度 910m
3日8時 AST ~ 3日9時 AST に一時的に
視程4830m
天気現象弱い霧雨 もや
全天を覆う雲 雲底高度 180m
3日9時 AST から
風向・風速西南西 6m/s
視程10km以上
全天の4割程度の雲 雲底高度 610m
全天の8割程度の雲 雲底高度 760m
3日9時 AST ~ 3日16時 AST に一時的に
全天の8割程度の雲 雲底高度 610m
3日9時 AST ~ 3日11時 AST に徐々に
風向・風速西南西 5m/s 瞬間風速 10m/s
3日17時 AST から
風向・風速南西 4m/s
視程10km以上
全天の4割程度の雲 雲底高度 610m
4日2時 AST から
風向・風速南 3m/s
視程8050m
天気現象もや
全天を覆う雲 雲底高度 460m
TAF CYHZ 031138Z 0312/0412 22010KT P6SM FEW006 OVC030
TEMPO 0312/0313 3SM -DZ BR OVC006
FM031300 24012KT P6SM SCT020 BKN025
TEMPO 0313/0320 BKN020
BECMG 0313/0315 25010G20KT
FM032100 23008KT P6SM SCT020
FM040600 18005KT 5SM BR OVC015 RMK NXT FCST BY 031500Z